Time;durP1;ratioP1;P1;durP2;ratioP2;P2;SDS_P1;SDS_P2;PMS_P1;PMS_P2;Temp;Humidity;BMP_temperature;BMP_pressure;BME280_temperature;BME280_humidity;BME280_pressure;Samples;Min_cycle;Max_cycle;Signal;HPM_P1;HPM_P2
2024/03/09 00:00:31;;;;;;;;;4.00;4.00;;;;;22.47;37.62;99556.91;6304863;22;45245;-76
2024/03/09 00:03:00;;;;;;;;;4.67;4.00;;;;;22.47;37.79;99556.09;6304972;22;45153;-77
2024/03/09 00:05:26;;;;;;;;;4.00;3.00;;;;;22.47;37.49;99556.09;6305141;22;45226;-76
2024/03/09 00:07:54;;;;;;;;;3.33;3.00;;;;;22.46;37.63;99567.72;6304351;22;46375;-76
2024/03/09 00:10:21;;;;;;;;;3.67;3.67;;;;;22.44;37.36;99557.34;6304227;22;45383;-76
2024/03/09 00:12:49;;;;;;;;;3.00;3.00;;;;;22.43;38.10;99561.00;6304702;22;45166;-76
2024/03/09 00:15:15;;;;;;;;;2.67;2.33;;;;;22.42;37.61;99558.59;6304598;22;45344;-76
2024/03/09 00:17:42;;;;;;;;;4.67;3.00;;;;;22.40;37.92;99554.28;6304605;22;46250;-76
2024/03/09 00:20:15;;;;;;;;;4.00;4.00;;;;;22.40;37.83;99559.59;6305032;22;45245;-76
2024/03/09 00:22:40;;;;;;;;;4.00;2.33;;;;;22.40;37.78;99558.81;6305083;22;45299;-77
2024/03/09 00:25:08;;;;;;;;;2.67;2.67;;;;;22.40;37.88;99562.25;6304630;22;45404;-76
2024/03/09 00:27:34;;;;;;;;;5.67;4.00;;;;;22.33;37.82;99558.03;6304418;22;46237;-76
2024/03/09 00:29:59;;;;;;;;;2.33;2.33;;;;;22.36;37.52;99574.31;6304627;22;45324;-76
2024/03/09 00:32:25;;;;;;;;;3.33;3.33;;;;;22.38;37.81;99576.75;6304407;22;45551;-76
2024/03/09 00:34:51;;;;;;;;;2.50;2.50;;;;;22.34;37.47;99565.78;6303163;22;45432;-76
2024/03/09 00:37:17;;;;;;;;;2.67;2.67;;;;;22.35;37.64;99574.53;6304895;22;45272;-76
2024/03/09 00:39:42;;;;;;;;;3.67;3.67;;;;;22.34;37.69;99573.72;6304496;22;45171;-77
2024/03/09 00:42:09;;;;;;;;;2.00;2.00;;;;;22.37;37.88;99572.47;6304728;22;45188;-77
2024/03/09 00:44:37;;;;;;;;;4.67;3.00;;;;;22.37;37.41;99580.44;6304588;22;45494;-76
2024/03/09 00:47:02;;;;;;;;;4.33;3.00;;;;;22.38;37.89;99577.56;6304671;22;46070;-77
2024/03/09 00:49:31;;;;;;;;;3.00;3.00;;;;;22.37;37.64;99578.59;6304849;22;45367;-76
2024/03/09 00:52:00;;;;;;;;;4.67;2.00;;;;;22.36;37.51;99579.63;6304742;22;45268;-77
2024/03/09 00:54:26;;;;;;;;;2.67;2.67;;;;;22.36;37.54;99560.25;6304585;22;45295;-76
2024/03/09 00:56:52;;;;;;;;;2.67;2.00;;;;;22.36;37.30;99568.19;6304215;22;45431;-76
2024/03/09 00:59:18;;;;;;;;;3.33;3.33;;;;;22.35;37.53;99551.47;6302868;22;45282;-76
2024/03/09 01:01:43;;;;;;;;;2.67;2.67;;;;;22.35;37.44;99554.13;6304886;22;45311;-77
2024/03/09 01:04:09;;;;;;;;;2.00;2.00;;;;;22.35;37.51;99561.28;6305206;22;45390;-77
2024/03/09 01:06:38;;;;;;;;;3.00;3.00;;;;;22.34;37.39;99563.13;6302547;22;46040;-76
2024/03/09 01:09:03;;;;;;;;;3.67;2.67;;;;;22.34;37.85;99568.41;6303835;22;45421;-76
2024/03/09 01:11:30;;;;;;;;;2.00;2.00;;;;;22.34;37.39;99562.31;6302838;22;45416;-76
2024/03/09 01:13:56;;;;;;;;;2.00;2.00;;;;;22.29;37.98;99560.28;6304643;22;45351;-76
2024/03/09 01:16:22;;;;;;;;;2.00;2.00;;;;;22.33;37.76;99566.00;6304185;22;46183;-76
2024/03/09 01:18:47;;;;;;;;;0.00;0.00;;;;;22.32;37.65;99575.78;6304746;22;45260;-76
2024/03/09 01:21:14;;;;;;;;;1.00;1.00;;;;;22.32;37.37;99582.91;6304289;22;45288;-76
2024/03/09 01:23:39;;;;;;;;;1.00;1.00;;;;;22.18;37.83;99567.91;6304061;22;45451;-76
2024/03/09 01:26:05;;;;;;;;;4.00;2.33;;;;;22.31;37.39;99579.44;6304592;22;45174;-76
2024/03/09 01:28:31;;;;;;;;;2.00;2.00;;;;;22.31;37.33;99560.88;6304576;22;45244;-77
2024/03/09 01:30:57;;;;;;;;;3.00;1.00;;;;;22.31;37.67;99574.13;6304559;22;45336;-76
2024/03/09 01:33:24;;;;;;;;;2.00;2.00;;;;;22.31;37.51;99562.72;6304283;22;45243;-76
2024/03/09 01:35:49;;;;;;;;;2.00;2.00;;;;;22.28;37.78;99553.38;6303992;22;47234;-76
2024/03/09 01:38:19;;;;;;;;;4.00;3.00;;;;;22.30;37.15;99546.03;6304319;22;45296;-76
2024/03/09 01:40:45;;;;;;;;;1.00;1.00;;;;;22.29;37.49;99550.53;6304420;22;45295;-76
2024/03/09 01:43:11;;;;;;;;;2.00;1.00;;;;;22.17;37.06;99537.13;6303849;22;45296;-77
2024/03/09 01:45:36;;;;;;;;;1.00;1.00;;;;;22.28;37.12;99542.75;6304182;22;45960;-76
2024/03/09 01:48:03;;;;;;;;;1.33;1.33;;;;;22.27;36.92;99539.31;6304254;22;45158;-76
2024/03/09 01:50:29;;;;;;;;;2.00;2.00;;;;;22.18;37.15;99517.56;6304137;22;45628;-76
2024/03/09 01:52:55;;;;;;;;;2.00;2.00;;;;;22.27;37.54;99536.69;6303672;22;45427;-76
2024/03/09 01:55:21;;;;;;;;;2.00;2.00;;;;;22.22;37.49;99528.56;6303948;22;47258;-76
2024/03/09 01:57:47;;;;;;;;;1.00;1.00;;;;;22.26;37.61;99534.22;6304479;22;45287;-75
2024/03/09 02:00:16;;;;;;;;;3.00;3.00;;;;;22.25;36.90;99525.47;6304605;22;45256;-76
2024/03/09 02:02:42;;;;;;;;;1.00;1.00;;;;;22.25;37.18;99527.31;6304060;22;45276;-76
2024/03/09 02:05:10;;;;;;;;;2.00;2.00;;;;;22.24;37.11;99529.16;6304164;22;46160;-76
2024/03/09 02:07:37;;;;;;;;;3.67;1.00;;;;;22.25;37.23;99528.09;6303831;22;45410;-76
2024/03/09 02:10:03;;;;;;;;;2.00;1.67;;;;;22.23;37.15;99513.44;6304037;22;45287;-76
2024/03/09 02:12:28;;;;;;;;;1.33;1.33;;;;;22.24;37.18;99521.19;6303999;22;45276;-76
2024/03/09 02:14:54;;;;;;;;;1.00;1.00;;;;;22.24;37.04;99515.09;6304038;22;46153;-76
2024/03/09 02:17:22;;;;;;;;;2.33;2.33;;;;;22.23;37.34;99498.38;6303742;22;45453;-77
2024/03/09 02:19:48;;;;;;;;;2.67;2.67;;;;;22.17;36.99;99505.34;6304069;22;45188;-76
2024/03/09 02:22:17;;;;;;;;;1.33;1.33;;;;;22.23;36.92;99498.38;6304228;22;45408;-76
2024/03/09 02:24:50;;;;;;;;;1.67;1.67;;;;;22.23;36.89;99497.56;6303585;22;46881;-76
2024/03/09 02:27:18;;;;;;;;;2.33;2.33;;;;;22.12;36.86;99488.47;6303559;22;45224;-77
2024/03/09 02:29:45;;;;;;;;;2.00;2.00;;;;;22.22;37.29;99493.31;6303830;22;45271;-77
2024/03/09 02:32:11;;;;;;;;;4.00;2.00;;;;;22.13;36.61;99480.31;6303608;22;45478;-76
2024/03/09 02:34:37;;;;;;;;;1.00;1.00;;;;;22.22;37.19;99493.31;6303209;22;47184;-76
2024/03/09 02:37:03;;;;;;;;;2.67;1.33;;;;;22.21;37.19;99487.19;6303924;22;45167;-76
2024/03/09 02:39:28;;;;;;;;;2.00;2.00;;;;;22.22;37.29;99477.41;6303817;22;45272;-76
2024/03/09 02:41:56;;;;;;;;;1.00;1.00;;;;;22.21;36.66;99478.41;6303630;22;45151;-76
2024/03/09 02:44:22;;;;;;;;;2.00;1.00;;;;;22.21;36.97;99483.72;6303526;22;46868;-76
2024/03/09 02:46:49;;;;;;;;;1.00;1.00;;;;;22.20;36.63;99472.31;6303351;22;45272;-76
2024/03/09 02:49:14;;;;;;;;;2.00;2.00;;;;;22.11;36.88;99455.06;6303077;22;45242;-76
2024/03/09 02:51:40;;;;;;;;;1.00;1.00;;;;;22.20;36.74;99456.41;6303480;22;45288;-76
2024/03/09 02:54:06;;;;;;;;;2.00;2.00;;;;;22.19;36.91;99452.16;6303653;22;46156;-75
2024/03/09 02:56:31;;;;;;;;;1.00;1.00;;;;;22.20;37.23;99461.72;6305308;22;45150;-76
2024/03/09 02:58:58;;;;;;;;;2.00;2.00;;;;;22.21;36.88;99451.94;6305296;22;45281;-76
2024/03/09 03:01:26;;;;;;;;;3.00;2.00;;;;;22.13;37.37;99440.56;6304909;22;45320;-77
2024/03/09 03:03:58;;;;;;;;;2.00;1.00;;;;;22.15;37.21;99438.50;6304412;22;46095;-77
2024/03/09 03:06:24;;;;;;;;;1.00;1.00;;;;;22.20;37.20;99440.50;6304745;22;45291;-77
2024/03/09 03:08:57;;;;;;;;;0.33;0.33;;;;;22.21;37.13;99441.31;6305690;22;45308;-77
2024/03/09 03:11:23;;;;;;;;;4.00;2.33;;;;;22.20;36.70;99435.22;6304869;22;45438;-77
2024/03/09 03:13:49;;;;;;;;;1.00;1.00;;;;;22.18;37.25;99430.16;6304789;22;46871;-77
2024/03/09 03:16:22;;;;;;;;;2.00;2.00;;;;;22.14;37.05;99430.78;6305307;22;45332;-77
2024/03/09 03:18:50;;;;;;;;;1.00;1.00;;;;;22.18;37.29;99439.91;6305192;22;45155;-77
2024/03/09 03:21:16;;;;;;;;;1.67;1.67;;;;;22.07;36.55;99413.09;6304970;22;45402;-77
2024/03/09 03:23:42;;;;;;;;;1.00;1.00;;;;;22.20;36.84;99426.47;6305306;22;45492;-77
2024/03/09 03:26:11;;;;;;;;;1.67;1.67;;;;;22.18;37.05;99438.09;6305439;22;45291;-77
2024/03/09 03:28:37;;;;;;;;;2.67;2.00;;;;;22.15;36.99;99430.56;6305091;22;45279;-76
2024/03/09 03:31:05;;;;;;;;;1.00;1.00;;;;;22.18;37.17;99429.31;6305341;22;45249;-77
2024/03/09 03:33:32;;;;;;;;;2.00;2.00;;;;;22.18;36.64;99427.50;6304526;22;46046;-75
2024/03/09 03:35:57;;;;;;;;;0.00;0.00;;;;;22.18;37.21;99430.16;6305258;22;45226;-77
2024/03/09 03:38:22;;;;;;;;;1.00;1.00;;;;;22.19;37.06;99430.97;6304907;22;45291;-73
2024/03/09 03:40:48;;;;;;;;;3.00;2.00;;;;;22.17;36.67;99425.84;6305275;22;45224;-77
2024/03/09 03:43:13;;;;;;;;;2.00;2.00;;;;;22.17;37.12;99425.84;6304681;22;46929;-77
2024/03/09 03:45:38;;;;;;;;;1.00;1.00;;;;;22.16;36.71;99426.91;6305330;22;45739;-77
2024/03/09 03:48:05;;;;;;;;;0.67;0.67;;;;;22.17;37.13;99431.16;6305117;22;45283;-77
2024/03/09 03:50:30;;;;;;;;;1.67;1.67;;;;;22.16;37.09;99421.59;6304819;22;45282;-76
2024/03/09 03:52:56;;;;;;;;;1.33;1.33;;;;;22.05;36.88;99403.75;6305305;22;45637;-76
2024/03/09 03:55:21;;;;;;;;;1.00;1.00;;;;;22.17;36.60;99417.13;6304951;22;45308;-76
2024/03/09 03:57:47;;;;;;;;;1.00;1.00;;;;;22.15;37.06;99412.03;6305573;22;45230;-76
2024/03/09 04:00:13;;;;;;;;;1.00;1.00;;;;;22.14;36.84;99404.31;6304990;22;45336;-76
2024/03/09 04:02:41;;;;;;;;;1.00;1.00;;;;;22.15;37.06;99401.44;6304088;22;45883;-76
2024/03/09 04:05:07;;;;;;;;;1.00;1.00;;;;;22.16;36.71;99400.41;6304826;22;45320;-77
2024/03/09 04:07:33;;;;;;;;;2.33;1.00;;;;;22.07;36.58;99383.97;6304580;22;45307;-76
2024/03/09 04:10:01;;;;;;;;;1.00;1.00;;;;;22.13;36.58;99387.59;6305248;22;45264;-76
2024/03/09 04:12:26;;;;;;;;;1.00;1.00;;;;;22.14;36.80;99389.22;6304753;22;45238;-76
2024/03/09 04:14:53;;;;;;;;;1.00;1.00;;;;;22.14;36.93;99385.75;6304863;22;45361;-76
2024/03/09 04:17:18;;;;;;;;;2.00;2.00;;;;;22.13;36.89;99387.59;6304433;22;45381;-76
2024/03/09 04:19:44;;;;;;;;;0.33;0.33;;;;;22.10;37.09;99382.72;6303144;22;45459;-75
2024/03/09 04:22:12;;;;;;;;;1.00;1.00;;;;;22.13;36.81;99365.59;6305090;22;45901;-75
2024/03/09 04:24:42;;;;;;;;;1.00;1.00;;;;;22.09;36.75;99356.47;6304619;22;45299;-76
2024/03/09 04:27:10;;;;;;;;;0.00;0.00;;;;;22.13;36.48;99376.19;6304376;22;45272;-75
2024/03/09 04:29:36;;;;;;;;;0.67;0.67;;;;;22.13;36.80;99382.31;6304799;22;45354;-75
2024/03/09 04:32:01;;;;;;;;;2.00;1.00;;;;;22.13;36.81;99390.25;6304025;22;46915;-76
2024/03/09 04:34:27;;;;;;;;;3.00;1.00;;;;;22.11;36.47;99387.00;6304853;22;45250;-76
2024/03/09 04:36:52;;;;;;;;;1.00;1.00;;;;;22.14;36.48;99385.75;6305474;22;45252;-75
2024/03/09 04:39:19;;;;;;;;;3.00;2.00;;;;;22.14;36.42;99388.41;6305164;22;45347;-76
2024/03/09 04:41:44;;;;;;;;;0.00;0.00;;;;;22.13;36.33;99392.09;6302962;22;48049;-75
2024/03/09 04:44:09;;;;;;;;;1.00;1.00;;;;;22.14;36.26;99388.41;6304628;22;45275;-76
2024/03/09 04:46:36;;;;;;;;;2.00;1.00;;;;;22.14;36.40;99378.63;6304540;22;45323;-76
2024/03/09 04:49:03;;;;;;;;;0.00;0.00;;;;;22.15;36.72;99384.72;6305004;22;45352;-76
2024/03/09 04:51:29;;;;;;;;;1.00;1.00;;;;;22.11;36.76;99375.59;6304855;22;45231;-76
2024/03/09 04:53:54;;;;;;;;;2.00;1.00;;;;;22.13;36.92;99377.00;6304625;22;45225;-74
2024/03/09 04:56:19;;;;;;;;;1.00;1.00;;;;;22.14;36.68;99367.22;6305374;22;45210;-74
2024/03/09 04:58:45;;;;;;;;;1.00;1.00;;;;;22.13;36.94;99366.41;6305204;22;45361;-76
2024/03/09 05:01:10;;;;;;;;;2.00;2.00;;;;;22.07;36.93;99356.66;6303958;22;47237;-74
2024/03/09 05:03:35;;;;;;;;;1.00;1.00;;;;;22.05;36.48;99350.78;6304382;22;45249;-75
2024/03/09 05:06:01;;;;;;;;;1.00;1.00;;;;;22.13;36.35;99358.47;6305037;22;45308;-77
2024/03/09 05:08:26;;;;;;;;;2.00;1.00;;;;;22.03;36.49;99335.13;6304760;22;45481;-77
2024/03/09 05:10:51;;;;;;;;;0.00;0.00;;;;;22.12;36.93;99359.47;6304764;22;45897;-76
2024/03/09 05:13:17;;;;;;;;;2.00;2.00;;;;;22.13;36.44;99347.88;6304932;22;45296;-76
2024/03/09 05:15:42;;;;;;;;;1.67;1.67;;;;;22.13;36.89;99361.09;6304567;22;45294;-76
2024/03/09 05:18:09;;;;;;;;;1.00;1.00;;;;;22.01;36.54;99336.38;6304534;22;45410;-75
2024/03/09 05:20:34;;;;;;;;;2.00;0.67;;;;;22.12;36.89;99350.75;6304173;22;46043;-75
2024/03/09 05:23:03;;;;;;;;;1.00;1.00;;;;;22.11;36.66;99349.94;6304374;22;45258;-76
2024/03/09 05:25:28;;;;;;;;;0.67;0.67;;;;;22.11;36.65;99357.06;6304606;22;45248;-75
2024/03/09 05:27:54;;;;;;;;;1.00;1.00;;;;;22.12;36.85;99353.41;6304706;22;45283;-76
2024/03/09 05:30:22;;;;;;;;;1.33;1.33;;;;;22.12;36.88;99345.44;6304253;22;45494;-76
2024/03/09 05:33:08;;;;;;;;;3.00;2.00;;;;;22.12;37.03;99334.84;6304309;22;45320;-76
2024/03/09 05:35:34;;;;;;;;;0.00;0.00;;;;;22.00;36.29;99305.59;6304953;22;45239;-76
2024/03/09 05:38:00;;;;;;;;;1.00;1.00;;;;;22.11;36.50;99325.28;6304221;22;45233;-76
2024/03/09 05:40:26;;;;;;;;;1.00;1.00;;;;;22.11;36.36;99326.09;6304749;22;47005;-76
2024/03/09 05:42:54;;;;;;;;;0.00;0.00;;;;;22.03;36.39;99313.94;6305055;22;45552;-77
2024/03/09 05:45:20;;;;;;;;;1.00;1.00;;;;;22.10;36.72;99334.22;6304737;22;45309;-77
2024/03/09 05:47:50;;;;;;;;;1.00;1.00;;;;;22.02;36.85;99319.44;6304433;22;45216;-76
2024/03/09 05:50:17;;;;;;;;;1.67;1.67;;;;;22.05;37.01;99309.22;6304521;22;46368;-76
2024/03/09 05:52:49;;;;;;;;;1.00;1.00;;;;;22.07;36.36;99314.28;6304457;22;45283;-74
2024/03/09 05:55:16;;;;;;;;;1.00;1.00;;;;;22.07;36.76;99309.81;6304227;22;45271;-76
2024/03/09 05:57:43;;;;;;;;;1.00;1.00;;;;;22.06;36.46;99302.09;6303774;22;45284;-74
2024/03/09 06:00:15;;;;;;;;;1.00;1.00;;;;;22.07;36.92;99301.03;6303757;22;46108;-77
2024/03/09 06:02:42;;;;;;;;;3.67;0.33;;;;;22.08;36.53;99315.91;6304029;22;45226;-76
2024/03/09 06:05:08;;;;;;;;;2.67;1.00;;;;;21.99;36.82;99288.09;6304629;22;45317;-76
2024/03/09 06:07:41;;;;;;;;;2.00;1.00;;;;;22.09;36.84;99314.09;6302392;22;45420;-76
2024/03/09 06:10:08;;;;;;;;;1.00;1.00;;;;;22.07;36.67;99322.25;6302172;22;48658;-76
2024/03/09 06:12:38;;;;;;;;;1.00;1.00;;;;;22.07;36.36;99327.53;6303149;22;45412;-76
2024/03/09 06:15:05;;;;;;;;;1.00;1.00;;;;;22.09;36.52;99338.75;6303928;22;45326;-75
2024/03/09 06:17:31;;;;;;;;;0.00;0.00;;;;;22.01;36.41;99317.81;6303889;22;45492;-77
2024/03/09 06:19:56;;;;;;;;;1.00;1.00;;;;;22.08;36.26;99326.53;6304032;22;45280;-76
2024/03/09 06:22:21;;;;;;;;;3.00;1.00;;;;;22.07;36.35;99316.94;6303842;22;45236;-75
2024/03/09 06:24:47;;;;;;;;;2.00;2.00;;;;;22.09;36.63;99314.09;6302426;22;45322;-76
2024/03/09 06:27:13;;;;;;;;;1.67;1.67;;;;;22.04;36.37;99304.94;6301695;22;45456;-75
2024/03/09 06:29:41;;;;;;;;;0.00;0.00;;;;;22.04;36.69;99309.44;6303945;22;46147;-76
2024/03/09 06:32:06;;;;;;;;;1.00;1.00;;;;;22.01;36.42;99292.16;6305660;22;45201;-75
2024/03/09 06:34:32;;;;;;;;;0.00;0.00;;;;;22.08;36.77;99307.97;6305180;22;45280;-76
2024/03/09 06:36:57;;;;;;;;;0.00;0.00;;;;;22.09;36.29;99296.38;6305789;22;45201;-76
2024/03/09 06:39:25;;;;;;;;;0.67;0.00;;;;;22.09;36.69;99288.41;6305496;22;45300;-75
2024/03/09 06:41:52;;;;;;;;;1.00;1.00;;;;;22.10;36.44;99289.22;6304546;22;45661;-76
2024/03/09 06:44:18;;;;;;;;;1.00;1.00;;;;;22.10;36.42;99282.06;6305315;22;45331;-76
2024/03/09 06:46:43;;;;;;;;;0.67;0.67;;;;;22.07;36.34;99279.84;6305552;22;45333;-76
2024/03/09 06:49:09;;;;;;;;;1.00;1.00;;;;;22.01;36.84;99278.09;6304804;22;46921;-76
2024/03/09 06:51:34;;;;;;;;;1.00;1.00;;;;;22.07;36.81;99285.97;6305261;22;45260;-77
2024/03/09 06:53:59;;;;;;;;;2.00;1.00;;;;;22.06;36.42;99292.31;6305661;22;45743;-75
2024/03/09 06:56:26;;;;;;;;;1.67;1.00;;;;;22.01;36.71;99280.75;6305267;22;45404;-77
2024/03/09 06:58:53;;;;;;;;;2.00;0.67;;;;;22.05;36.54;99298.63;6305046;22;45975;-76
2024/03/09 07:01:21;;;;;;;;;1.00;1.00;;;;;22.06;36.82;99299.44;6304669;22;45308;-76
2024/03/09 07:03:47;;;;;;;;;1.00;1.00;;;;;21.97;36.81;99296.25;6305140;22;45226;-75
2024/03/09 07:06:12;;;;;;;;;1.67;1.67;;;;;22.05;36.79;99319.00;6304965;22;45417;-76
2024/03/09 07:08:38;;;;;;;;;0.67;0.67;;;;;22.04;36.68;99323.47;6305151;22;46151;-77
2024/03/09 07:11:04;;;;;;;;;1.00;1.00;;;;;22.04;36.34;99312.88;6305307;22;45151;-77
2024/03/09 07:13:30;;;;;;;;;1.00;1.00;;;;;21.57;36.79;99250.53;6304735;22;45232;-76
2024/03/09 07:15:55;;;;;;;;;1.00;1.00;;;;;22.01;36.32;99321.28;6305300;22;45212;-76
2024/03/09 07:18:22;;;;;;;;;2.33;1.00;;;;;21.94;36.31;99307.28;6304881;22;47057;-75
2024/03/09 07:20:47;;;;;;;;;1.67;1.00;;;;;22.04;36.10;99328.78;6304855;22;45424;-75
2024/03/09 07:23:13;;;;;;;;;2.00;1.00;;;;;21.98;36.70;99321.72;6305305;22;45271;-75
2024/03/09 07:25:38;;;;;;;;;1.00;1.00;;;;;21.95;36.58;99314.19;6304573;22;45474;-76
2024/03/09 07:28:04;;;;;;;;;2.00;1.00;;;;;22.06;36.71;99325.94;6305240;22;45303;-75
2024/03/09 07:30:32;;;;;;;;;1.00;1.00;;;;;22.03;36.69;99313.13;6305160;22;45269;-77
2024/03/09 07:32:58;;;;;;;;;0.00;0.00;;;;;22.02;36.61;99308.84;6305106;22;45361;-79
2024/03/09 07:35:29;;;;;;;;;1.00;1.00;;;;;22.06;36.32;99320.63;6305042;22;45490;-78
2024/03/09 07:38:00;;;;;;;;;1.00;1.00;;;;;22.06;36.51;99325.94;6305110;22;45507;-78
2024/03/09 07:40:26;;;;;;;;;0.00;0.00;;;;;22.06;36.62;99310.84;6304526;22;45201;-79
2024/03/09 07:42:53;;;;;;;;;0.00;0.00;;;;;22.07;36.54;99315.09;6304383;22;45284;-80
2024/03/09 07:45:19;;;;;;;;;1.67;1.67;;;;;22.10;36.52;99315.69;6305634;22;45424;-81
2024/03/09 07:47:50;;;;;;;;;1.00;1.00;;;;;22.11;36.45;99299.59;6305024;22;45531;-82
2024/03/09 07:50:18;;;;;;;;;1.33;1.33;;;;;22.09;36.48;99291.06;6304551;22;45254;-88
2024/03/09 07:52:48;;;;;;;;;1.00;1.00;;;;;22.10;37.36;99292.66;6305796;22;45308;-86
2024/03/09 07:55:20;;;;;;;;;0.00;0.00;;;;;22.02;37.03;99272.56;6305552;22;45351;-87
2024/03/09 07:57:49;;;;;;;;;1.00;1.00;;;;;21.86;37.19;99234.19;6306275;22;47134;-82
2024/03/09 08:00:22;;;;;;;;;2.00;2.00;;;;;22.21;37.33;99282.38;6304071;22;45209;-78
2024/03/09 08:02:47;;;;;;;;;1.00;1.00;;;;;22.20;37.23;99281.56;6304624;22;45191;-78
2024/03/09 08:05:15;;;;;;;;;1.00;1.00;;;;;22.21;36.91;99282.38;6304338;22;45371;-78
2024/03/09 08:07:44;;;;;;;;;0.00;0.00;;;;;22.22;37.07;99278.72;6303826;22;46130;-78
2024/03/09 08:10:17;;;;;;;;;2.00;1.00;;;;;22.22;36.93;99268.13;6304338;22;45296;-80
2024/03/09 08:12:43;;;;;;;;;1.00;0.00;;;;;22.22;36.66;99266.28;6304452;22;45299;-78
2024/03/09 08:15:11;;;;;;;;;0.67;0.67;;;;;22.23;36.74;99264.44;6304592;22;45276;-77
2024/03/09 08:17:37;;;;;;;;;0.00;0.00;;;;;22.23;37.00;99259.94;6304899;22;46181;-80
2024/03/09 08:20:06;;;;;;;;;1.00;1.00;;;;;21.95;36.84;99208.28;6305423;22;45248;-82
2024/03/09 08:22:31;;;;;;;;;1.00;1.00;;;;;22.13;36.64;99236.63;6304507;22;45232;-82
2024/03/09 08:24:57;;;;;;;;;2.00;0.33;;;;;22.05;37.32;99221.81;6305300;22;45300;-82
2024/03/09 08:27:22;;;;;;;;;1.33;1.33;;;;;22.24;36.78;99252.81;6304865;22;46000;-82
2024/03/09 08:29:49;;;;;;;;;1.00;1.00;;;;;22.13;36.93;99228.66;6305271;22;45241;-82
2024/03/09 08:32:15;;;;;;;;;1.00;1.00;;;;;22.25;37.38;99241.19;6305113;22;45268;-82
2024/03/09 08:34:41;;;;;;;;;1.00;1.00;;;;;22.16;37.04;99224.78;6305063;22;45269;-82
2024/03/09 08:37:09;;;;;;;;;2.00;1.33;;;;;22.24;37.34;99240.38;6305657;22;45397;-81
2024/03/09 08:39:37;;;;;;;;;1.00;1.00;;;;;22.24;37.36;99240.38;6305870;22;45289;-82
2024/03/09 08:42:05;;;;;;;;;0.00;0.00;;;;;22.25;37.33;99233.25;6307012;22;45303;-82
2024/03/09 08:44:31;;;;;;;;;0.00;0.00;;;;;22.20;37.05;99225.16;6305130;22;45400;-82
2024/03/09 08:46:57;;;;;;;;;2.00;2.00;;;;;22.24;36.93;99248.31;6304539;22;46145;-82
2024/03/09 08:49:24;;;;;;;;;1.00;1.00;;;;;22.25;36.75;99227.94;6305025;22;45217;-82
2024/03/09 08:51:52;;;;;;;;;1.67;1.33;;;;;22.26;37.12;99227.72;6304436;22;45245;-82
2024/03/09 08:54:18;;;;;;;;;1.33;1.33;;;;;22.22;36.60;99208.00;6304322;22;45315;-82
2024/03/09 08:56:43;;;;;;;;;0.00;0.00;;;;;22.24;36.82;99211.25;6304344;22;46899;-80
2024/03/09 08:59:09;;;;;;;;;1.00;1.00;;;;;22.25;36.96;99220.78;6305144;22;45362;-80
2024/03/09 09:01:35;;;;;;;;;1.00;1.00;;;;;22.27;37.46;99249.72;6304657;22;45304;-81
2024/03/09 09:04:03;;;;;;;;;1.00;1.00;;;;;22.12;36.79;99223.59;6304943;22;45331;-81
2024/03/09 09:06:30;;;;;;;;;1.00;1.00;;;;;22.13;36.92;99220.72;6303920;22;46648;-81
2024/03/09 09:08:58;;;;;;;;;1.00;1.00;;;;;22.26;37.07;99230.38;6304476;22;45256;-82
2024/03/09 09:11:23;;;;;;;;;1.00;1.00;;;;;22.01;36.79;99196.00;6304409;22;45349;-82
2024/03/09 09:13:49;;;;;;;;;1.00;1.00;;;;;22.05;37.38;99219.19;6304562;22;45244;-82
2024/03/09 09:16:18;;;;;;;;;1.00;1.00;;;;;22.22;36.93;99241.63;6304661;22;45874;-82
2024/03/09 09:18:46;;;;;;;;;0.00;0.00;;;;;22.17;37.23;99240.44;6304749;22;45209;-82
2024/03/09 09:21:12;;;;;;;;;0.00;0.00;;;;;22.26;37.12;99254.22;6304424;22;45543;-82
2024/03/09 09:23:37;;;;;;;;;1.00;1.00;;;;;22.27;37.16;99253.19;6304885;22;45250;-82
2024/03/09 09:26:03;;;;;;;;;1.00;1.00;;;;;22.21;37.08;99246.13;6304553;22;46325;-82
2024/03/09 09:28:28;;;;;;;;;1.00;1.00;;;;;22.26;37.44;99237.50;6304342;22;45271;-82
2024/03/09 09:30:54;;;;;;;;;1.00;1.00;;;;;22.20;36.90;99231.25;6305114;22;45272;-82
2024/03/09 09:33:21;;;;;;;;;0.67;0.33;;;;;22.26;36.69;99233.00;6304612;22;45287;-81
2024/03/09 09:35:47;;;;;;;;;1.00;1.00;;;;;22.31;36.92;99244.78;6303897;22;46552;-81
2024/03/09 09:38:17;;;;;;;;;1.00;1.00;;;;;22.07;37.08;99211.81;6304969;22;45226;-81
2024/03/09 09:40:45;;;;;;;;;2.33;2.00;;;;;22.22;37.06;99231.84;6303148;22;45275;-82
2024/03/09 09:43:11;;;;;;;;;1.67;0.67;;;;;22.03;36.61;99194.75;6304411;22;45387;-83
2024/03/09 09:45:42;;;;;;;;;1.00;1.00;;;;;22.06;36.68;99186.38;6304467;22;45414;-82
2024/03/09 09:48:10;;;;;;;;;0.67;0.67;;;;;22.22;36.72;99210.66;6304966;22;45310;-82
2024/03/09 09:50:36;;;;;;;;;2.00;2.00;;;;;22.33;36.93;99218.91;6303782;22;45300;-82
2024/03/09 09:53:07;;;;;;;;;0.00;0.00;;;;;22.30;36.96;99228.09;6304104;22;45438;-82
2024/03/09 09:55:35;;;;;;;;;1.67;0.33;;;;;22.16;36.90;99182.41;6304543;22;45335;-82
2024/03/09 09:58:00;;;;;;;;;1.00;1.00;;;;;22.21;37.22;99179.88;6303927;22;45363;-82
2024/03/09 10:00:26;;;;;;;;;1.00;1.00;;;;;22.32;37.29;99196.06;6304041;22;45254;-82
2024/03/09 10:03:01;;;;;;;;;0.67;0.67;;;;;22.34;37.15;99213.34;6304414;22;45416;-82
2024/03/09 10:05:34;;;;;;;;;1.67;0.00;;;;;22.32;37.05;99199.53;6304304;22;46637;-82
2024/03/09 10:08:11;;;;;;;;;2.00;1.00;;;;;22.36;37.36;99197.22;6304956;22;45268;-82
2024/03/09 10:10:42;;;;;;;;;1.00;1.00;;;;;22.23;36.63;99184.94;6305413;22;45702;-82
2024/03/09 10:13:10;;;;;;;;;0.00;0.00;;;;;22.37;37.06;99209.47;6305738;22;45317;-81
2024/03/09 10:15:38;;;;;;;;;0.33;0.33;;;;;22.29;37.18;99189.38;6305170;22;46920;-81
2024/03/09 10:18:04;;;;;;;;;2.00;0.00;;;;;22.36;36.50;99192.75;6305050;22;45247;-81
2024/03/09 10:20:31;;;;;;;;;0.33;0.33;;;;;22.31;36.78;99183.84;6305341;22;45237;-82
2024/03/09 10:22:58;;;;;;;;;1.00;1.00;;;;;22.20;36.80;99149.13;6305589;22;45394;-80
2024/03/09 10:25:27;;;;;;;;;1.00;0.00;;;;;22.17;36.82;99133.69;6305489;22;45928;-81
2024/03/09 10:27:59;;;;;;;;;2.00;2.00;;;;;22.23;36.61;99153.16;6304973;22;45343;-81
2024/03/09 10:30:25;;;;;;;;;1.00;1.00;;;;;22.32;36.93;99153.69;6305029;22;45252;-81
2024/03/09 10:32:54;;;;;;;;;2.00;1.00;;;;;22.17;36.76;99139.00;6304942;22;45241;-81
2024/03/09 10:35:20;;;;;;;;;0.00;0.00;;;;;22.37;36.97;99159.94;6305368;22;46013;-81
2024/03/09 10:37:50;;;;;;;;;1.00;0.67;;;;;22.32;36.78;99151.03;6305405;22;45167;-81
2024/03/09 10:40:16;;;;;;;;;0.00;0.00;;;;;22.21;37.21;99136.69;6305274;22;45383;-81
2024/03/09 10:42:45;;;;;;;;;2.00;0.00;;;;;22.29;36.67;99155.75;6305024;22;45735;-80
2024/03/09 10:45:15;;;;;;;;;2.00;0.00;;;;;22.34;36.59;99162.19;6305027;22;46025;-82
2024/03/09 10:47:54;;;;;;;;;1.00;1.00;;;;;22.35;36.75;99148.72;6302983;22;45579;-81
2024/03/09 10:50:23;;;;;;;;;1.00;1.00;;;;;22.37;37.25;99159.13;6305580;22;45296;-80
2024/03/09 10:53:00;;;;;;;;;0.67;0.67;;;;;22.23;36.56;99139.91;6305274;22;45493;-81
2024/03/09 10:55:37;;;;;;;;;1.00;1.00;;;;;22.37;37.19;99161.75;6304971;22;46147;-80
2024/03/09 10:58:05;;;;;;;;;2.00;1.00;;;;;22.34;36.90;99154.25;6305242;22;45513;-80
2024/03/09 11:00:31;;;;;;;;;0.00;0.00;;;;;22.33;37.10;99139.41;6305470;22;45308;-80
2024/03/09 11:03:00;;;;;;;;;0.00;0.00;;;;;22.35;37.06;99127.53;6304791;22;45356;-80
2024/03/09 11:05:27;;;;;;;;;0.00;0.00;;;;;22.29;37.28;99131.09;6304727;22;46399;-80
2024/03/09 11:07:54;;;;;;;;;0.33;0.33;;;;;22.39;37.00;99135.84;6306668;22;45282;-82
2024/03/09 11:10:22;;;;;;;;;1.00;1.00;;;;;22.39;36.86;99133.19;6306190;22;45265;-80
2024/03/09 11:12:49;;;;;;;;;0.00;0.00;;;;;22.29;36.58;99107.25;6306332;22;45198;-81
2024/03/09 11:15:15;;;;;;;;;0.67;0.00;;;;;22.25;36.66;99090.97;6305186;22;45982;-82
2024/03/09 11:17:44;;;;;;;;;0.67;0.67;;;;;22.25;36.63;99087.53;6305090;22;45307;-82
2024/03/09 11:20:13;;;;;;;;;2.00;1.00;;;;;22.34;36.70;99104.72;6305358;22;45154;-80
2024/03/09 11:22:48;;;;;;;;;0.00;0.00;;;;;22.23;37.10;99079.00;6305091;22;45410;-80
2024/03/09 11:25:14;;;;;;;;;2.00;0.33;;;;;22.39;36.54;99101.41;6304785;22;46097;-81
2024/03/09 11:27:41;;;;;;;;;1.00;0.00;;;;;22.38;37.02;99103.25;6304757;22;45284;-81
2024/03/09 11:30:08;;;;;;;;;0.33;0.33;;;;;22.14;36.88;99067.91;6305201;22;45310;-81
2024/03/09 11:32:36;;;;;;;;;1.00;1.00;;;;;22.35;36.54;99087.00;6305010;22;45235;-82